Terminal Aerodrome Forecast
Issued by NWS

Home | Current Version | Previous Version | Text Only | Print | Product List | Glossary On
Versions: 1 2 3 4 5 6 7 8 9 10 11 12 13 14 15 16 17 18 19 20 21 22 23 24
000
FTAK31 PAFA 160924 AAB
TAFAGA
TAF AMD
PAGA 160924Z 1609/1706 VRB03KT P6SM FEW014 SCT060 OVC110
     FM161100 08011KT 2SM -SN BR OVC015
     FM162100 10004KT 4SM -SN BR OVC015=

USA.gov is the U.S. government's official web portal to all federal, state and local government web resources and services.